Time;durP1;ratioP1;P1;durP2;ratioP2;P2;SDS_P1;SDS_P2;PMS_P1;PMS_P2;Temp;Humidity;BMP_temperature;BMP_pressure;BME280_temperature;BME280_humidity;BME280_pressure;Samples;Min_cycle;Max_cycle;Signal;HPM_P1;HPM_P2
2024/03/08 00:00:34;;;;;;;41.80;17.30;;;1.10;99.90;;;;;;5041033;28;20693;-53
2024/03/08 00:03:01;;;;;;;39.67;17.37;;;1.20;99.90;;;;;;5034468;28;20209;-55
2024/03/08 00:05:27;;;;;;;40.17;17.30;;;1.20;99.90;;;;;;5033535;28;20835;-55
2024/03/08 00:07:53;;;;;;;37.00;16.70;;;1.20;99.90;;;;;;5037535;28;20195;-54
2024/03/08 00:10:20;;;;;;;37.17;17.03;;;1.00;99.90;;;;;;5020292;28;20191;-56
2024/03/08 00:12:46;;;;;;;36.53;15.70;;;1.00;99.90;;;;;;5037857;28;20214;-51
2024/03/08 00:15:14;;;;;;;39.23;17.80;;;1.00;99.90;;;;;;5035665;28;20179;-53
2024/03/08 00:17:43;;;;;;;41.83;17.27;;;0.90;99.90;;;;;;5049024;28;20195;-56
2024/03/08 00:20:09;;;;;;;37.97;17.37;;;1.00;99.90;;;;;;5035883;28;20207;-54
2024/03/08 00:22:36;;;;;;;41.40;18.77;;;0.90;99.90;;;;;;5029678;28;20230;-54
2024/03/08 00:25:02;;;;;;;33.90;15.70;;;0.80;99.90;;;;;;5029707;28;20220;-54
2024/03/08 00:27:30;;;;;;;36.30;16.67;;;0.80;99.90;;;;;;5028916;28;20176;-56
2024/03/08 00:29:56;;;;;;;40.03;16.97;;;;;;;;;;5041784;28;20555;-53
2024/03/08 00:32:24;;;;;;;40.57;16.90;;;;;;;;;;5042274;28;20267;-54
2024/03/08 00:34:54;;;;;;;40.13;16.77;;;;;;;;;;5048815;28;20757;-52
2024/03/08 00:37:20;;;;;;;35.87;16.50;;;;;;;;;;5025164;28;20237;-51
2024/03/08 00:39:46;;;;;;;40.53;16.57;;;;;;;;;;5039512;28;20265;-52
2024/03/08 00:42:12;;;;;;;38.63;16.13;;;;;;;;;;5035067;28;20243;-54
2024/03/08 00:44:38;;;;;;;36.87;16.40;;;;;;;;;;5029109;28;20766;-51
2024/03/08 00:47:04;;;;;;;33.50;15.40;;;;;;;;;;5037574;28;20215;-53
2024/03/08 00:49:30;;;;;;;38.07;16.20;;;;;;;;;;5037160;28;20187;-53
2024/03/08 00:51:56;;;;;;;34.13;15.57;;;;;;;;;;5041374;28;20677;-51
2024/03/08 00:54:22;;;;;;;36.27;15.80;;;;;;;;;;5041923;28;20355;-51
2024/03/08 00:56:48;;;;;;;41.27;17.17;;;;;;;;;;5028988;28;20196;-51
2024/03/08 00:59:14;;;;;;;34.30;15.93;;;;;;;;;;5028655;28;20192;-56
2024/03/08 01:01:40;;;;;;;34.27;15.00;;;;;;;;;;5045654;28;20298;-51
2024/03/08 01:04:07;;;;;;;36.67;16.57;;;;;;;;;;5029099;28;20227;-51
2024/03/08 01:06:33;;;;;;;38.30;16.23;;;;;;;;;;5029199;28;20717;-54
2024/03/08 01:08:59;;;;;;;37.40;16.27;;;;;;;;;;5029445;28;20210;-51
2024/03/08 01:11:27;;;;;;;37.90;16.57;;;;;;;;;;5036687;28;20658;-51
2024/03/08 01:13:53;;;;;;;35.00;15.63;;;;;;;;;;5040944;28;20712;-54
2024/03/08 01:16:22;;;;;;;38.87;16.67;;;;;;;;;;5034123;28;20187;-52
2024/03/08 01:18:48;;;;;;;36.63;16.20;;;;;;;;;;5039499;28;20195;-53
2024/03/08 01:21:14;;;;;;;39.33;15.63;;;;;;;;;;5034860;28;20683;-51
2024/03/08 01:23:40;;;;;;;37.80;16.03;;;;;;;;;;5037628;28;20746;-52
2024/03/08 01:26:06;;;;;;;43.10;16.77;;;;;;;;;;5032602;28;20182;-57
2024/03/08 01:28:34;;;;;;;37.63;15.60;;;;;;;;;;5032371;28;20188;-57
2024/03/08 01:31:00;;;;;;;35.10;16.33;;;;;;;;;;5032995;28;20946;-56
2024/03/08 01:33:27;;;;;;;38.13;16.17;;;;;;;;;;5032969;28;20239;-56
2024/03/08 01:35:53;;;;;;;37.87;16.73;;;;;;;;;;5032827;28;20191;-51
2024/03/08 01:38:21;;;;;;;39.57;15.93;;;;;;;;;;5032832;28;20563;-53
2024/03/08 01:40:47;;;;;;;38.07;16.37;;;;;;;;;;5032703;28;20277;-55
2024/03/08 01:43:19;;;;;;;35.07;15.33;;;;;;;;;;5032417;28;20203;-51
2024/03/08 01:45:45;;;;;;;40.40;16.37;;;;;;;;;;5049039;28;20209;-54
2024/03/08 01:48:12;;;;;;;36.97;15.60;;;;;;;;;;5045885;28;20702;-53
2024/03/08 01:50:39;;;;;;;38.27;16.47;;;;;;;;;;5043263;28;20226;-53
2024/03/08 01:53:06;;;;;;;34.77;15.60;;;;;;;;;;5037411;28;20272;-54
2024/03/08 01:55:32;;;;;;;34.57;16.00;;;;;;;;;;5052150;28;20671;-50
2024/03/08 01:58:00;;;;;;;38.87;16.63;;;;;;;;;;5039806;28;20269;-51
2024/03/08 02:00:26;;;;;;;38.70;16.73;;;;;;;;;;5032284;28;20239;-54
2024/03/08 02:02:54;;;;;;;41.97;17.23;;;;;;;;;;5040447;28;20175;-50
2024/03/08 02:05:20;;;;;;;35.87;16.00;;;;;;;;;;5039406;28;20706;-52
2024/03/08 02:07:46;;;;;;;36.77;15.70;;;;;;;;;;5048709;28;20214;-51
2024/03/08 02:10:12;;;;;;;37.27;16.63;;;;;;;;;;5040422;28;20206;-51
2024/03/08 02:12:39;;;;;;;37.47;16.50;;;;;;;;;;5048666;28;20187;-52
2024/03/08 02:15:06;;;;;;;37.83;16.13;;;;;;;;;;5040126;28;20924;-52
2024/03/08 02:17:35;;;;;;;46.87;18.00;;;;;;;;;;5031972;28;20187;-50
2024/03/08 02:20:02;;;;;;;41.07;16.50;;;;;;;;;;5043398;28;20616;-53
2024/03/08 02:22:28;;;;;;;42.80;17.07;;;;;;;;;;5052050;28;20194;-51
2024/03/08 02:24:55;;;;;;;41.97;17.93;;;;;;;;;;5032029;28;20606;-52
2024/03/08 02:27:29;;;;;;;37.67;16.60;;;;;;;;;;5031468;28;20192;-53
2024/03/08 02:29:56;;;;;;;45.33;17.63;;;;;;;;;;5040335;28;20192;-56
2024/03/08 02:32:25;;;;;;;41.27;17.57;;;;;;;;;;5031779;28;20195;-53
2024/03/08 02:34:51;;;;;;;50.33;16.73;;;;;;;;;;5050506;28;20215;-51
2024/03/08 02:37:17;;;;;;;41.40;18.07;;;;;;;;;;5037072;28;20207;-51
2024/03/08 02:39:43;;;;;;;44.03;16.77;;;;;;;;;;5047673;28;20578;-51
2024/03/08 02:42:09;;;;;;;42.97;17.23;;;;;;;;;;5031509;28;20176;-56
2024/03/08 02:44:35;;;;;;;40.50;16.50;;;;;;;;;;5040347;28;20565;-55
2024/03/08 02:47:01;;;;;;;43.77;17.00;;;;;;;;;;5038679;28;20196;-51
2024/03/08 02:49:30;;;;;;;43.97;18.33;;;;;;;;;;5039243;28;20579;-50
2024/03/08 02:51:57;;;;;;;37.87;16.33;;;;;;;;;;5040006;28;20184;-53
2024/03/08 02:54:23;;;;;;;42.40;17.77;;;;;;;;;;5031402;28;20214;-53
2024/03/08 02:56:53;;;;;;;38.63;15.30;;;;;;;;;;5031175;28;20470;-54
2024/03/08 02:59:19;;;;;;;38.70;16.10;;;;;;;;;;5030690;28;20461;-54
2024/03/08 03:01:45;;;;;;;41.13;17.30;;;;;;;;;;5030864;28;20426;-50
2024/03/08 03:04:11;;;;;;;43.23;17.00;;;;;;;;;;5031355;28;20207;-50
2024/03/08 03:06:37;;;;;;;43.17;17.43;;;;;;;;;;5030806;28;20184;-50
2024/03/08 03:09:06;;;;;;;45.57;17.43;;;;;;;;;;5030734;28;20294;-51
2024/03/08 03:11:32;;;;;;;41.77;15.40;;;;;;;;;;5030837;28;20500;-52
2024/03/08 03:13:58;;;;;;;36.80;16.23;;;;;;;;;;5030955;28;21033;-51
2024/03/08 03:16:24;;;;;;;48.87;17.30;;;;;;;;;;5030694;28;20695;-56
2024/03/08 03:18:50;;;;;;;39.47;17.27;;;;;;;;;;5030251;28;20453;-52
2024/03/08 03:21:17;;;;;;;41.73;16.70;;;;;;;;;;5030742;28;20211;-51
2024/03/08 03:23:43;;;;;;;40.43;16.77;;;;;;;;;;5030660;28;20207;-54
2024/03/08 03:26:12;;;;;;;35.47;16.60;;;;;;;;;;5030568;28;20241;-53
2024/03/08 03:28:39;;;;;;;40.67;17.37;;;;;;;;;;5029969;28;20563;-58
2024/03/08 03:31:06;;;;;;;41.77;16.70;;;;;;;;;;5030528;28;20184;-53
2024/03/08 03:33:34;;;;;;;46.97;17.00;;;;;;;;;;5030393;28;20542;-57
2024/03/08 03:36:00;;;;;;;44.27;17.27;;;;;;;;;;5030633;28;20418;-50
2024/03/08 03:38:27;;;;;;;40.83;16.90;;;;;;;;;;5029865;28;20184;-56
2024/03/08 03:40:57;;;;;;;41.53;16.87;;;;;;;;;;5030224;28;20222;-55
2024/03/08 03:43:23;;;;;;;44.73;17.90;;;;;;;;;;5030046;28;20434;-57
2024/03/08 03:45:49;;;;;;;39.20;16.43;;;;;;;;;;5012640;28;20265;-56
2024/03/08 03:48:15;;;;;;;42.20;17.00;;;;;;;;;;5029136;28;20497;-55
2024/03/08 03:50:41;;;;;;;41.87;17.17;;;;;;;;;;5030211;28;20179;-54
2024/03/08 03:53:07;;;;;;;39.33;16.97;;;;;;;;;;5038497;28;20199;-53
2024/03/08 03:55:33;;;;;;;41.37;17.00;;;;;;;;;;5029866;28;20919;-53
2024/03/08 03:58:01;;;;;;;41.63;17.03;;;;;;;;;;5029355;28;20242;-51
2024/03/08 04:00:27;;;;;;;46.33;17.77;;;;;;;;;;5029482;28;20638;-53
2024/03/08 04:02:53;;;;;;;39.33;16.93;;;;;;;;;;5037793;28;20422;-56
2024/03/08 04:05:19;;;;;;;42.23;17.10;;;;;;;;;;5038065;28;20698;-54
2024/03/08 04:07:45;;;;;;;43.13;17.23;;;;;;;;;;5037382;28;20422;-54
2024/03/08 04:10:11;;;;;;;37.77;15.97;;;;;;;;;;5037761;28;20566;-57
2024/03/08 04:12:38;;;;;;;40.83;17.23;;;;;;;;;;5029570;28;20211;-51
2024/03/08 04:15:07;;;;;;;48.70;17.47;;;;;;;;;;5037761;28;20503;-50
2024/03/08 04:17:32;;;;;;;45.70;17.57;;;;;;;;;;5037236;28;20429;-51
2024/03/08 04:19:58;;;;;;;42.23;16.67;;;;;;;;;;5038097;28;20218;-54
2024/03/08 04:22:24;;;;;;;37.60;15.90;;;;;;;;;;5029055;28;20196;-51
2024/03/08 04:24:50;;;;;;;44.43;17.43;;;;;;;;;;5029711;28;20215;-52
2024/03/08 04:27:16;;;;;;;44.20;16.77;;;;;;;;;;5029312;28;20479;-52
2024/03/08 04:29:42;;;;;;;44.83;17.30;;;;;;;;;;5029306;28;20231;-52
2024/03/08 04:32:09;;;;;;;45.10;17.93;;;;;;;;;;5037810;28;20192;-53
2024/03/08 04:34:35;;;;;;;40.83;16.93;;;;;;;;;;5029788;28;20207;-54
2024/03/08 04:37:04;;;;;;;44.43;17.33;;;;;;;;;;5037316;28;20419;-50
2024/03/08 04:39:31;;;;;;;45.10;18.57;;;;;;;;;;5037123;28;20418;-55
2024/03/08 04:42:06;;;;;;;40.70;17.07;;;;;;;;;;5037346;28;20797;-51
2024/03/08 04:44:33;;;;;;;42.27;17.57;;;;;;;;;;5029381;28;20450;-60
2024/03/08 04:47:00;;;;;;;47.60;18.87;;;;;;;;;;5040688;28;20493;-50
2024/03/08 04:49:27;;;;;;;47.07;18.87;;;;;;;;;;5041523;28;20787;-53
2024/03/08 04:51:53;;;;;;;42.87;17.10;;;;;;;;;;5029502;28;20187;-51
2024/03/08 04:54:19;;;;;;;45.63;18.17;;;;;;;;;;5029075;28;20460;-55
2024/03/08 04:56:46;;;;;;;45.40;17.13;;;;;;;;;;5047448;28;20227;-52
2024/03/08 04:59:11;;;;;;;46.53;17.00;;;;;;;;;;5037378;28;20194;-51
2024/03/08 05:01:37;;;;;;;56.57;18.87;;;;;;;;;;5041964;28;20476;-55
2024/03/08 05:04:04;;;;;;;47.53;17.67;;;;;;;;;;5049210;28;20294;-53
2024/03/08 05:06:30;;;;;;;48.77;18.13;;;;;;;;;;5049441;28;20183;-52
2024/03/08 05:08:56;;;;;;;47.40;17.97;;;;;;;;;;5040953;28;20502;-56
2024/03/08 05:11:22;;;;;;;44.67;16.67;;;;;;;;;;5033576;28;20430;-56
2024/03/08 05:13:48;;;;;;;37.03;15.93;;;;;;;;;;5041421;28;20454;-55
2024/03/08 05:16:15;;;;;;;38.67;16.53;;;;;;;;;;5032644;28;20434;-56
2024/03/08 05:18:42;;;;;;;46.50;16.67;;;;;;;;;;5040935;28;20207;-50
2024/03/08 05:21:09;;;;;;;44.57;17.10;;;;;;;;;;5046267;28;20469;-51
2024/03/08 05:23:35;;;;;;;45.20;16.97;;;;;;;;;;5043912;28;20707;-55
2024/03/08 05:26:01;;;;;;;41.60;16.40;;;;;;;;;;5032745;28;20422;-53
2024/03/08 05:28:27;;;;;;;48.13;17.63;;;;;;;;;;5039902;28;20282;-51
2024/03/08 05:30:53;;;;;;;45.23;17.03;;;;;;;;;;5044184;28;20245;-54
2024/03/08 05:33:19;;;;;;;44.03;17.23;;;;;;;;;;5052672;28;20214;-54
2024/03/08 05:35:45;;;;;;;44.30;16.63;;;;;;;;;;5034555;28;20198;-54
2024/03/08 05:38:12;;;;;;;45.00;17.23;;;;;;;;;;5032212;28;20832;-55
2024/03/08 05:40:38;;;;;;;43.87;17.17;;;;;;;;;;5041713;28;20469;-52
2024/03/08 05:43:05;;;;;;;46.43;18.23;;;;;;;;;;5040055;28;20596;-50
2024/03/08 05:45:31;;;;;;;47.60;18.53;;;;;;;;;;5032316;28;20437;-52
2024/03/08 05:47:57;;;;;;;44.33;17.10;;;;;;;;;;5031848;28;20410;-54
2024/03/08 05:50:23;;;;;;;40.40;17.07;;;;;;;;;;5032444;28;20192;-55
2024/03/08 05:52:49;;;;;;;42.90;17.87;;;;;;;;;;5032373;28;20628;-56
2024/03/08 05:55:15;;;;;;;45.17;18.27;;;;;;;;;;5032363;28;20215;-54
2024/03/08 05:57:42;;;;;;;43.10;17.87;;;;;;;;;;5033179;28;20501;-51
2024/03/08 06:00:09;;;;;;;45.57;17.20;;;;;;;;;;5044003;28;20520;-51
2024/03/08 06:02:40;;;;;;;50.00;17.93;;;;;;;;;;5043410;28;20420;-53
2024/03/08 06:05:06;;;;;;;46.27;18.47;;;;;;;;;;5031107;28;20427;-55
2024/03/08 06:07:32;;;;;;;53.53;19.40;;;;;;;;;;5043125;28;20454;-53
2024/03/08 06:10:00;;;;;;;46.27;16.67;;;;;;;;;;5031239;28;20468;-51
2024/03/08 06:12:28;;;;;;;42.37;18.37;;;;;;;;;;5031178;28;20432;-51
2024/03/08 06:14:54;;;;;;;42.57;17.50;;;;;;;;;;5039506;28;20438;-54
2024/03/08 06:17:25;;;;;;;44.67;17.83;;;;;;;;;;5031293;28;20821;-50
2024/03/08 06:19:52;;;;;;;57.03;24.00;;;;;;;;;;5039382;28;20207;-52
2024/03/08 06:22:19;;;;;;;47.40;19.70;;;;;;;;;;5045730;28;20636;-51
2024/03/08 06:24:45;;;;;;;52.70;20.27;;;;;;;;;;5049266;28;21082;-56
2024/03/08 06:27:11;;;;;;;51.87;19.33;;;;;;;;;;5030989;28;20414;-50
2024/03/08 06:29:37;;;;;;;48.80;18.13;;;;;;;;;;5030806;28;20194;-50
2024/03/08 06:32:03;;;;;;;50.40;18.13;;;;;;;;;;5039256;28;20550;-51
2024/03/08 06:34:29;;;;;;;53.90;19.33;;;;;;;;;;5038633;28;20253;-51
2024/03/08 06:37:00;;;;;;;75.90;22.07;;;;;;;;;;5031275;28;20462;-54
2024/03/08 06:39:26;;;;;;;86.27;26.67;;;;;;;;;;5046177;28;20183;-52
2024/03/08 06:41:52;;;;;;;68.57;23.87;;;;;;;;;;5040253;28;20437;-53
2024/03/08 06:44:21;;;;;;;70.80;22.40;;;;;;;;;;5030433;28;20953;-51
2024/03/08 06:46:48;;;;;;;55.93;20.47;;;;;;;;;;5030569;28;20188;-53
2024/03/08 06:49:15;;;;;;;55.67;21.53;;;;;;;;;;5030498;28;20414;-52
2024/03/08 06:51:41;;;;;;;72.50;22.50;;;;;;;;;;5030766;28;20418;-51
2024/03/08 06:54:08;;;;;;;60.10;21.07;;;;;;;;;;5030897;28;20809;-52
2024/03/08 06:56:35;;;;;;;58.70;22.23;;;;;;;;;;5038667;28;20191;-54
2024/03/08 06:59:03;;;;;;;65.90;23.90;;;;;;;;;;5033851;28;20467;-51
2024/03/08 07:01:31;;;;;;;65.73;24.53;;;;;;;;;;5050495;28;20753;-51
2024/03/08 07:03:57;;;;;;;74.97;26.20;;;;;;;;;;5038880;28;20203;-53
2024/03/08 07:06:23;;;;;;;60.60;22.87;;;;;;;;;;5030277;28;20922;-52
2024/03/08 07:08:49;;;;;;;68.43;23.33;;;;;;;;;;5046384;28;20426;-54
2024/03/08 07:11:18;;;;;;;64.03;21.63;;;;;;;;;;5038449;28;20747;-52
2024/03/08 07:13:45;;;;;;;54.87;22.13;;;;;;;;;;5031397;28;20240;-50
2024/03/08 07:16:11;;;;;;;54.17;21.50;;;;;;;;;;5031765;28;20998;-53
2024/03/08 07:18:43;;;;;;;54.57;21.50;;;;;;;;;;5050030;28;20210;-53
2024/03/08 07:21:09;;;;;;;61.60;20.97;;;;;;;;;;5041822;28;20593;-53
2024/03/08 07:23:54;;;;;;;61.70;22.00;;;;;;;;;;5032278;28;20263;-54
2024/03/08 07:26:20;;;;;;;73.23;22.47;;;;;;;;;;5038083;28;20184;-50
2024/03/08 07:28:46;;;;;;;66.60;21.60;;;;;;;;;;5047428;28;20205;-52
2024/03/08 07:33:58;;;;;;;81.50;22.13;;;;;;;;;;5046525;28;20219;-52
2024/03/08 07:36:24;;;;;;;59.73;21.20;;;;;;;;;;5037806;28;20203;-54
2024/03/08 07:38:50;;;;;;;57.83;21.57;;;;;;;;;;5039856;28;20183;-50
2024/03/08 07:41:16;;;;;;;53.60;22.53;;;;;;;;;;5043791;28;20212;-52
2024/03/08 07:43:42;;;;;;;68.40;24.30;;;;;;;;;;5038530;28;20748;-50
2024/03/08 07:46:10;;;;;;;60.77;24.37;;;;;;;;;;5044898;28;20176;-54
2024/03/08 07:48:36;;;;;;;59.83;23.23;;;;;;;;;;5045661;28;20187;-54
2024/03/08 07:51:03;;;;;;;63.07;25.17;;;;;;;;;;5033479;28;20183;-53
2024/03/08 07:53:29;;;;;;;65.03;23.77;;;;;;;;;;5049727;28;20746;-55
2024/03/08 07:55:55;;;;;;;58.93;23.23;;;0.80;99.90;;;;;;5030123;28;20227;-55
2024/03/08 07:58:21;;;;;;;52.43;23.70;;;;;;;;;;5029071;28;20445;-57
2024/03/08 08:00:47;;;;;;;51.33;21.27;;;;;;;;;;5034173;28;20763;-57
2024/03/08 08:03:13;;;;;;;48.87;21.00;;;;;;;;;;5033476;28;20194;-56
2024/03/08 08:05:39;;;;;;;46.17;21.43;;;4.30;99.90;;;;;;5047454;28;20185;-52
2024/03/08 08:08:06;;;;;;;50.33;20.37;;;;;;;;;;5028553;28;20183;-53
2024/03/08 08:10:32;;;;;;;43.33;19.87;;;5.80;99.90;;;;;;5029438;28;20187;-58
2024/03/08 08:12:58;;;;;;;51.10;20.20;;;6.20;99.90;;;;;;5040109;28;20262;-53
2024/03/08 08:15:24;;;;;;;39.60;19.07;;;6.80;99.90;;;;;;5042193;28;20279;-52
2024/03/08 08:17:49;;;;;;;40.07;18.07;;;7.30;99.90;;;;;;5030193;28;20194;-54
2024/03/08 08:20:15;;;;;;;40.43;18.53;;;7.70;99.90;;;;;;5035051;28;20217;-54
2024/03/08 08:22:42;;;;;;;38.97;17.53;;;;;;;;;;5029539;28;20596;-54
2024/03/08 08:25:08;;;;;;;39.13;17.77;;;;;;;;;;5044621;28;20176;-53
2024/03/08 08:27:38;;;;;;;35.43;17.77;;;;;;;;;;5028396;28;20180;-55
2024/03/08 08:30:07;;;;;;;38.20;18.50;;;;;;;;;;5032794;28;20202;-55
2024/03/08 08:32:33;;;;;;;33.50;16.10;;;;;;;;;;5040567;28;20199;-55
2024/03/08 08:34:59;;;;;;;36.03;20.67;;;;;;;;;;5038863;28;20407;-52
2024/03/08 08:37:25;;;;;;;33.30;16.17;;;;;;;;;;5032879;28;20942;-56
2024/03/08 08:39:52;;;;;;;35.00;17.47;;;;;;;;;;5036680;28;20209;-53
2024/03/08 08:42:18;;;;;;;33.67;16.90;;;;;;;;;;5037206;28;20195;-55
2024/03/08 08:44:44;;;;;;;33.17;16.03;;;;;;;;;;5028496;28;20513;-56
2024/03/08 08:47:10;;;;;;;34.07;16.83;;;;;;;;;;5028571;28;20187;-53
2024/03/08 08:49:36;;;;;;;33.73;16.07;;;;;;;;;;5028216;28;20195;-57
2024/03/08 08:52:03;;;;;;;36.03;16.27;;;;;;;;;;5037148;28;20183;-55
2024/03/08 08:54:29;;;;;;;32.23;16.07;;;;;;;;;;5036023;28;20675;-53
2024/03/08 08:56:55;;;;;;;30.13;15.03;;;;;;;;;;5029344;28;20592;-51
2024/03/08 08:59:22;;;;;;;31.60;15.93;;;;;;;;;;5042589;28;20190;-52
2024/03/08 09:01:50;;;;;;;35.57;16.10;;;;;;;;;;5038233;28;20183;-55
2024/03/08 09:04:16;;;;;;;29.77;15.13;;;;;;;;;;5036606;28;20202;-53
2024/03/08 09:06:42;;;;;;;33.20;15.00;;;;;;;;;;5044790;28;20608;-51
2024/03/08 09:09:09;;;;;;;32.83;15.93;;;;;;;;;;5036356;28;20176;-55
2024/03/08 09:11:35;;;;;;;32.27;14.67;;;;;;;;;;5028616;28;20191;-54
2024/03/08 09:14:01;;;;;;;31.60;15.40;;;;;;;;;;5036442;28;20195;-54
2024/03/08 09:16:28;;;;;;;28.73;14.27;;;;;;;;;;5028365;28;20188;-55
2024/03/08 09:18:53;;;;;;;30.10;14.00;;;;;;;;;;5038485;28;20669;-54
2024/03/08 09:21:19;;;;;;;28.40;13.90;;;;;;;;;;5040341;28;20309;-52
2024/03/08 09:23:45;;;;;;;31.17;14.47;;;;;;;;;;5038583;28;20230;-51
2024/03/08 09:26:12;;;;;;;26.43;14.00;;;;;;;;;;5027587;28;20211;-57
2024/03/08 09:28:41;;;;;;;28.03;13.87;;;;;;;;;;5035772;28;20184;-56
2024/03/08 09:31:07;;;;;;;24.23;13.37;;;;;;;;;;5032468;28;20641;-55
2024/03/08 09:33:33;;;;;;;26.90;13.30;;;;;;;;;;5040071;28;20207;-52
2024/03/08 09:35:59;;;;;;;28.40;13.73;;;;;;;;;;5036584;28;20188;-55
2024/03/08 09:38:25;;;;;;;27.93;12.80;;;;;;;;;;5034256;28;20191;-56
2024/03/08 09:40:53;;;;;;;26.20;13.30;;;;;;;;;;5045919;28;20226;-57
2024/03/08 09:43:19;;;;;;;24.97;12.77;;;;;;;;;;5027789;28;20196;-52
2024/03/08 09:45:46;;;;;;;30.87;14.73;;;;;;;;;;5036325;28;20199;-55
2024/03/08 09:48:13;;;;;;;30.67;13.87;;;;;;;;;;5031235;28;20188;-51
2024/03/08 09:50:41;;;;;;;29.53;12.90;;;;;;;;;;5031817;28;20187;-56
2024/03/08 09:53:10;;;;;;;30.23;13.13;;;;;;;;;;5031366;28;20703;-51
2024/03/08 09:55:44;;;;;;;26.03;12.47;;;;;;;;;;5039855;28;20217;-54
2024/03/08 10:00:44;;;;;;;25.27;13.07;;;;;;;;;;5031372;28;20369;-51
2024/03/08 10:03:10;;;;;;;23.00;12.13;;;;;;;;;;5039595;28;20544;-55
2024/03/08 10:05:36;;;;;;;23.37;12.13;;;;;;;;;;5031512;28;20238;-57
2024/03/08 10:08:03;;;;;;;24.43;12.20;;;;;;;;;;5030866;28;20291;-54
2024/03/08 10:10:29;;;;;;;23.80;12.03;;;;;;;;;;5039777;28;20233;-51
2024/03/08 10:12:56;;;;;;;25.07;13.07;;;;;;;;;;5030724;28;20194;-54
2024/03/08 10:15:22;;;;;;;24.47;11.87;;;;;;;;;;5039057;28;20578;-52
2024/03/08 10:17:48;;;;;;;26.03;13.47;;;;;;;;;;5031837;28;20488;-54
2024/03/08 10:20:18;;;;;;;24.63;12.87;;;;;;;;;;5042905;28;20206;-52
2024/03/08 10:22:44;;;;;;;23.63;12.30;;;;;;;;;;5041642;28;20211;-52
2024/03/08 10:25:11;;;;;;;29.80;13.50;;;;;;;;;;5039559;28;20184;-51
2024/03/08 10:27:38;;;;;;;25.93;13.37;;;;;;;;;;5030268;28;20190;-55
2024/03/08 10:30:06;;;;;;;24.87;13.00;;;;;;;;;;5030929;28;20655;-52
2024/03/08 10:32:32;;;;;;;27.13;13.30;;;;;;;;;;5031013;28;20192;-54
2024/03/08 10:34:59;;;;;;;25.00;12.77;;;;;;;;;;5038858;28;20702;-56
2024/03/08 10:37:28;;;;;;;24.93;13.30;;;;;;;;;;5037637;28;20214;-61
2024/03/08 10:40:15;;;;;;;26.63;12.47;;;;;;;;;;5031872;28;20211;-51
2024/03/08 10:42:47;;;;;;;23.93;11.90;;;;;;;;;;5039125;28;20232;-54
2024/03/08 10:45:22;;;;;;;25.27;13.00;;;;;;;;;;5038844;28;20203;-54
2024/03/08 10:47:50;;;;;;;24.80;12.87;;;;;;;;;;5039806;28;20182;-50
2024/03/08 10:50:22;;;;;;;22.63;13.10;;;;;;;;;;5042409;28;20179;-52
2024/03/08 10:52:50;;;;;;;23.13;12.23;;;;;;;;;;5040328;28;20242;-56
2024/03/08 10:55:19;;;;;;;24.60;13.43;;;8.10;99.90;;;;;;5039090;28;20188;-56
2024/03/08 10:57:44;;;;;;;26.97;13.63;;;13.80;99.90;;;;;;5029726;28;20639;-56
2024/03/08 11:00:14;;;;;;;28.43;13.33;;;13.80;99.90;;;;;;5043417;28;20260;-54
2024/03/08 11:02:44;;;;;;;26.00;13.53;;;;;;;;;;5033217;28;20216;-51
2024/03/08 11:05:35;;;;;;;24.73;13.37;;;;;;;;;;5030374;28;20669;-55
2024/03/08 11:08:01;;;;;;;23.40;12.90;;;;;;;;;;5029614;28;20583;-56
2024/03/08 11:10:27;;;;;;;27.03;12.93;;;;;;;;;;5037413;28;20557;-54
2024/03/08 11:12:53;;;;;;;25.03;12.87;;;;;;;;;;5047689;28;20191;-54
2024/03/08 11:15:19;;;;;;;25.57;13.30;;;;;;;;;;5029974;28;20572;-55
2024/03/08 11:17:49;;;;;;;25.87;12.93;;;;;;;;;;5045812;28;20194;-50
2024/03/08 11:20:16;;;;;;;23.07;12.57;;;;;;;;;;5030103;28;20710;-54
2024/03/08 11:22:45;;;;;;;27.67;12.47;;;;;;;;;;5037945;28;20183;-50
2024/03/08 11:25:31;;;;;;;23.93;12.67;;;;;;;;;;5029998;28;20191;-50
2024/03/08 11:28:16;;;;;;;23.37;12.27;;;;;;;;;;5036030;28;20218;-51
2024/03/08 11:30:42;;;;;;;28.13;13.63;;;;;;;;;;5036435;28;20190;-54
2024/03/08 11:33:12;;;;;;;22.87;12.73;;;;;;;;;;5029797;28;20199;-52
2024/03/08 11:35:39;;;;;;;31.00;14.73;;;;;;;;;;5029698;28;20279;-56
2024/03/08 11:38:06;;;;;;;26.73;13.70;;;;;;;;;;5018862;28;20271;-52
2024/03/08 11:40:33;;;;;;;23.73;12.77;;;;;;;;;;5037869;28;20273;-55
2024/03/08 11:43:06;;;;;;;25.50;12.73;;;;;;;;;;5037682;28;20187;-55
2024/03/08 11:45:35;;;;;;;23.13;12.83;;;;;;;;;;5045128;28;20348;-55
2024/03/08 11:48:03;;;;;;;23.67;13.03;;;;;;;;;;5029160;28;20214;-51
2024/03/08 11:50:29;;;;;;;23.13;12.37;;;;;;;;;;5029430;28;20239;-56
2024/03/08 11:53:00;;;;;;;25.50;13.40;;;;;;;;;;5029139;28;20223;-51
2024/03/08 11:55:28;;;;;;;25.80;13.67;;;;;;;;;;5029527;28;20191;-52
2024/03/08 11:58:00;;;;;;;24.00;12.43;;;;;;;;;;5028508;28;20191;-54
2024/03/08 12:00:26;;;;;;;23.43;12.13;;;;;;;;;;5029021;28;20252;-58
2024/03/08 12:03:01;;;;;;;24.43;11.97;;;;;;;;;;5038380;28;20186;-51
2024/03/08 12:05:27;;;;;;;29.93;12.27;;;;;;;;;;5034201;28;20710;-53
2024/03/08 12:07:57;;;;;;;25.80;13.37;;;;;;;;;;5044645;28;20236;-54
2024/03/08 12:10:24;;;;;;;25.37;11.57;;;;;;;;;;5043944;28;20191;-56
2024/03/08 12:12:51;;;;;;;30.17;13.73;;;;;;;;;;5039091;28;20202;-55
2024/03/08 12:15:18;;;;;;;21.37;11.83;;;;;;;;;;5034460;28;20195;-55
2024/03/08 12:17:45;;;;;;;23.87;12.80;;;;;;;;;;5031022;28;20215;-53
2024/03/08 12:20:16;;;;;;;25.30;12.73;;;;;;;;;;5028848;28;20206;-55
2024/03/08 12:22:43;;;;;;;27.77;13.13;;;;;;;;;;5029330;28;20433;-52
2024/03/08 12:25:10;;;;;;;28.07;13.53;;;;;;;;;;5037408;28;20188;-56
2024/03/08 12:27:37;;;;;;;24.53;13.17;;;;;;;;;;5028347;28;20611;-54
2024/03/08 12:30:20;;;;;;;22.80;12.00;;;;;;;;;;5047165;28;20561;-56
2024/03/08 12:32:56;;;;;;;27.77;13.17;;;;;;;;;;5031922;28;20667;-56
2024/03/08 12:35:23;;;;;;;22.97;11.80;;;;;;;;;;5042791;28;20656;-52
2024/03/08 12:37:51;;;;;;;23.43;12.00;;;;;;;;;;5028086;28;20202;-55
2024/03/08 12:40:17;;;;;;;22.77;11.83;;;;;;;;;;5034053;28;20300;-54
2024/03/08 12:42:49;;;;;;;21.20;11.13;;;;;;;;;;5031205;28;20661;-56
2024/03/08 12:45:15;;;;;;;22.53;11.80;;;;;;;;;;5033509;28;20199;-56
2024/03/08 12:47:41;;;;;;;21.73;11.53;;;;;;;;;;5039316;28;20202;-55
2024/03/08 12:50:08;;;;;;;26.60;12.83;;;;;;;;;;5037312;28;20258;-54
2024/03/08 12:52:34;;;;;;;23.93;12.43;;;;;;;;;;5028666;28;20197;-54
2024/03/08 12:55:03;;;;;;;21.43;11.83;;;;;;;;;;5036595;28;20222;-54
2024/03/08 12:57:29;;;;;;;25.60;12.47;;;;;;;;;;5027939;28;20663;-58
2024/03/08 12:59:55;;;;;;;24.17;12.37;;;;;;;;;;5030300;28;20208;-57
2024/03/08 13:02:21;;;;;;;25.27;12.73;;;;;;;;;;5034282;28;20210;-57
2024/03/08 13:04:57;;;;;;;25.30;12.40;;;;;;;;;;5028496;28;20753;-55
2024/03/08 13:07:24;;;;;;;22.20;11.20;;;;;;;;;;5036650;28;20326;-54
2024/03/08 13:09:50;;;;;;;26.07;11.93;;;;;;;;;;5027824;28;20195;-55
2024/03/08 13:12:16;;;;;;;21.20;10.73;;;;;;;;;;5028330;28;20184;-57
2024/03/08 13:14:42;;;;;;;23.47;11.17;;;;;;;;;;5028471;28;20679;-56
2024/03/08 13:17:11;;;;;;;22.60;11.30;;;;;;;;;;5035973;28;20274;-54
2024/03/08 13:19:38;;;;;;;21.90;11.50;;;;;;;;;;5042654;28;20261;-53
2024/03/08 13:22:04;;;;;;;22.90;11.73;;;;;;;;;;5043500;28;20183;-55
2024/03/08 13:24:40;;;;;;;19.97;10.70;;;;;;;;;;5043724;28;20202;-56
2024/03/08 13:27:16;;;;;;;22.23;11.70;;;;;;;;;;5048242;28;20662;-52
2024/03/08 13:29:43;;;;;;;21.60;11.30;;;;;;;;;;5031527;28;20329;-56
2024/03/08 13:32:11;;;;;;;21.70;11.20;;;;;;;;;;5032419;28;20571;-65
2024/03/08 13:34:38;;;;;;;20.70;9.97;;;;;;;;;;5032066;28;20231;-63
2024/03/08 13:37:05;;;;;;;21.17;9.90;;;;;;;;;;5051760;28;20179;-51
2024/03/08 13:39:40;;;;;;;20.43;10.00;;;;;;;;;;5035817;28;20604;-55
2024/03/08 13:42:09;;;;;;;18.10;9.73;;;;;;;;;;5044151;28;20205;-57
2024/03/08 13:44:35;;;;;;;18.43;9.63;;;;;;;;;;5034791;28;20290;-54
2024/03/08 13:47:04;;;;;;;19.70;9.77;;;;;;;;;;5039831;28;20244;-53
2024/03/08 13:49:30;;;;;;;18.20;9.47;;;;;;;;;;5031444;28;20557;-52
2024/03/08 13:51:58;;;;;;;18.13;9.40;;;;;;;;;;5031317;28;20647;-54
2024/03/08 13:54:24;;;;;;;22.67;10.60;;;;;;;;;;5031954;28;20235;-58
2024/03/08 13:56:54;;;;;;;18.70;9.23;;;;;;;;;;5041135;28;20219;-61
2024/03/08 13:59:22;;;;;;;19.20;9.10;;;;;;;;;;5042939;28;20199;-53
2024/03/08 14:01:48;;;;;;;16.87;8.90;;;;;;;;;;5033738;28;20584;-52
2024/03/08 14:04:16;;;;;;;19.60;9.87;;;;;;;;;;5036152;28;20210;-57
2024/03/08 14:06:44;;;;;;;18.80;9.60;;;;;;;;;;5034420;28;20191;-55
2024/03/08 14:09:16;;;;;;;20.17;10.17;;;;;;;;;;5043516;28;20209;-55
2024/03/08 14:11:42;;;;;;;19.87;9.87;;;;;;;;;;5034487;28;20202;-53
2024/03/08 14:14:08;;;;;;;18.37;9.13;;;;;;;;;;5031244;28;20204;-61
2024/03/08 14:16:37;;;;;;;17.30;9.47;;;;;;;;;;5030644;28;20220;-55